Time;durP1;ratioP1;P1;durP2;ratioP2;P2;SDS_P1;SDS_P2;PMS_P1;PMS_P2;Temp;Humidity;BMP_temperature;BMP_pressure;BME280_temperature;BME280_humidity;BME280_pressure;Samples;Min_cycle;Max_cycle;Signal;HPM_P1;HPM_P2
2023/02/23 00:01:15;;;;;;;10.45;8.50;;;;;;;8.50;43.79;93680.56;5020621;28;20100;-75
2023/02/23 00:03:41;;;;;;;11.63;8.68;;;;;;;8.44;43.83;93673.81;5038417;28;20036;-75
2023/02/23 00:06:08;;;;;;;11.15;8.20;;;;;;;8.57;43.87;93691.50;5019352;28;20053;-76
2023/02/23 00:08:35;;;;;;;9.88;7.43;;;;;;;8.41;44.00;93679.69;5021046;28;20033;-76
2023/02/23 00:11:05;;;;;;;9.75;6.85;;;;;;;8.42;44.02;93683.91;5044161;28;20033;-75
2023/02/23 00:13:38;;;;;;;8.88;7.00;;;;;;;8.24;44.27;93663.69;5039839;28;20040;-76
2023/02/23 00:16:11;;;;;;;12.98;9.30;;;;;;;8.37;44.28;93701.81;5019283;28;20416;-75
2023/02/23 00:18:43;;;;;;;17.45;12.77;;;;;;;8.35;44.18;93698.69;5023700;28;20487;-76
2023/02/23 00:21:33;;;;;;;14.68;11.95;;;;;;;8.19;44.52;93666.47;5019393;28;20025;-76
2023/02/23 00:24:01;;;;;;;15.18;10.38;;;;;;;8.40;44.31;93703.88;5021374;28;20018;-76
2023/02/23 00:26:33;;;;;;;12.68;8.93;;;;;;;8.47;44.39;93706.88;5020286;28;20038;-76
2023/02/23 00:28:59;;;;;;;10.23;7.35;;;;;;;8.25;44.48;93675.09;5018976;28;20037;-76
2023/02/23 00:31:25;;;;;;;10.48;7.18;;;;;;;8.39;44.66;93704.94;5020717;28;20531;-76
2023/02/23 00:33:56;;;;;;;12.60;6.88;;;;;;;8.21;44.59;93674.91;5022979;28;20033;-75
2023/02/23 00:36:25;;;;;;;12.20;8.20;;;;;;;8.40;44.59;93704.66;5024921;28;20018;-76
2023/02/23 00:38:53;;;;;;;9.30;6.53;;;;;;;8.38;44.53;93704.16;5046000;28;20057;-76
2023/02/23 00:41:27;;;;;;;10.00;6.10;;;;;;;8.21;44.60;93692.66;5027287;28;20117;-76
2023/02/23 00:43:54;;;;;;;8.13;6.82;;;;;;;8.22;44.68;93695.00;5038159;28;20045;-74
2023/02/23 00:46:21;;;;;;;9.27;7.40;;;;;;;8.32;44.57;93700.06;5028365;28;20037;-76
2023/02/23 00:48:48;;;;;;;9.57;7.30;;;;;;;8.30;44.73;93701.47;5026352;28;20029;-76
2023/02/23 00:51:15;;;;;;;8.90;6.28;;;;;;;8.31;44.82;93698.50;5024727;28;20033;-76
2023/02/23 00:53:42;;;;;;;8.48;6.00;;;;;;;8.07;44.92;93676.84;5028021;28;20056;-76
2023/02/23 00:56:09;;;;;;;8.45;6.50;;;;;;;8.24;45.02;93686.75;5041882;28;20041;-76
2023/02/23 00:58:35;;;;;;;9.50;5.88;;;;;;;7.96;45.16;93670.19;5040808;28;20038;-76
2023/02/23 01:01:03;;;;;;;10.80;7.35;;;;;;;8.05;44.91;93674.47;5035784;28;20146;-76
2023/02/23 01:03:29;;;;;;;14.75;9.95;;;;;;;8.26;44.63;93684.59;5033101;28;20053;-76
2023/02/23 01:06:03;;;;;;;16.00;10.23;;;;;;;8.08;45.02;93681.81;5036189;28;20050;-77
2023/02/23 01:08:29;;;;;;;10.40;8.13;;;;;;;8.05;45.24;93676.34;5057957;28;20064;-76
2023/02/23 01:10:54;;;;;;;12.25;9.05;;;;;;;7.87;45.44;93664.06;5071619;28;20033;-76
2023/02/23 01:13:20;;;;;;;16.25;9.50;;;;;;;7.97;45.71;93698.25;5054713;28;20044;-76
2023/02/23 01:15:46;;;;;;;11.45;8.68;;;;;;;7.94;45.46;93693.53;5053940;28;20044;-75
2023/02/23 01:18:16;;;;;;;15.55;8.65;;;;;;;7.95;45.54;93689.81;5050338;28;20021;-76
2023/02/23 01:20:42;;;;;;;17.42;8.63;;;;;;;7.50;45.72;93641.25;5050567;28;20024;-76
2023/02/23 01:23:09;;;;;;;9.82;6.57;;;;;;;7.62;45.94;93692.59;5028035;28;20101;-76
2023/02/23 01:25:37;;;;;;;10.35;6.80;;;;;;;7.55;46.15;93694.88;5027096;28;20568;-75
2023/02/23 01:28:03;;;;;;;13.93;7.85;;;;;;;7.37;46.64;93668.53;5028771;28;20038;-76
2023/02/23 01:30:28;;;;;;;15.57;8.45;;;;;;;7.55;46.32;93676.34;5030109;28;20598;-76
2023/02/23 01:32:53;;;;;;;13.57;8.68;;;;;;;7.53;46.39;93689.06;5029308;28;20067;-76
2023/02/23 01:35:19;;;;;;;13.10;6.72;;;;;;;7.49;46.13;93680.16;5029423;28;20040;-75
2023/02/23 01:37:44;;;;;;;7.43;5.85;;;;;;;7.64;46.33;93690.44;5029095;28;20056;-76
2023/02/23 01:40:29;;;;;;;10.50;6.63;;;;;;;7.74;46.18;93702.69;5024421;28;20037;-76
2023/02/23 01:43:14;;;;;;;6.93;5.40;;;;;;;7.62;46.29;93697.91;5023973;28;20105;-75
2023/02/23 01:45:44;;;;;;;10.70;6.45;;;;;;;7.19;46.37;93635.84;5025915;28;20033;-75
2023/02/23 01:48:14;;;;;;;8.93;6.93;;;;;;;7.46;46.35;93680.75;5024959;28;20112;-76
2023/02/23 01:51:02;;;;;;;9.95;7.22;;;;;;;7.59;46.43;93693.19;5028967;28;20029;-75
2023/02/23 01:53:34;;;;;;;10.20;6.70;;;;;;;7.57;46.51;93690.06;5025213;28;20068;-76
2023/02/23 01:56:10;;;;;;;8.77;6.35;;;;;;;7.55;46.51;93676.34;5026834;28;20041;-76
2023/02/23 01:58:39;;;;;;;10.10;6.30;;;;;;;7.65;46.49;93692.00;5039292;28;20030;-75
2023/02/23 02:01:05;;;;;;;14.80;7.68;;;;;;;7.83;46.38;93673.66;5029165;28;20098;-75
2023/02/23 02:03:35;;;;;;;11.77;7.90;;;;;;;7.73;46.04;93662.19;5023547;28;20125;-75
2023/02/23 02:06:04;;;;;;;8.73;6.93;;;;;;;7.80;46.30;93682.97;5023854;28;20033;-76
2023/02/23 02:08:31;;;;;;;12.43;7.70;;;;;;;7.60;46.26;93657.69;5023561;28;20065;-76
2023/02/23 02:10:56;;;;;;;9.00;6.63;;;;;;;7.73;46.29;93661.41;5025183;28;20092;-76
2023/02/23 02:13:27;;;;;;;8.70;5.78;;;;;;;7.80;46.30;93671.59;5048050;28;20508;-75
2023/02/23 02:15:53;;;;;;;8.52;5.47;;;;;;;7.76;46.18;93674.06;5035524;28;20132;-75
2023/02/23 02:18:25;;;;;;;7.38;5.50;;;;;;;7.62;46.42;93654.78;5020103;28;20679;-76
2023/02/23 02:21:12;;;;;;;7.05;4.97;;;;;;;7.89;46.03;93669.81;5021438;28;20075;-75
2023/02/23 02:23:49;;;;;;;6.43;4.95;;;;;;;7.95;45.74;93669.41;5044786;28;20048;-76
2023/02/23 02:26:30;;;;;;;5.68;4.22;;;;;;;7.95;45.75;93671.28;5044718;28;20065;-75
2023/02/23 02:29:20;;;;;;;8.77;5.55;;;;;;;7.87;46.14;93677.28;5038942;28;20041;-76
2023/02/23 02:31:59;;;;;;;10.02;6.00;;;;;;;7.88;46.02;93684.91;5030700;28;20033;-76
2023/02/23 02:34:52;;;;;;;6.38;5.00;;;;;;;7.92;46.00;93677.19;5022343;28;20033;-75
2023/02/23 02:37:27;;;;;;;6.15;5.20;;;;;;;7.83;46.21;93671.00;5023511;28;20528;-75
2023/02/23 02:40:15;;;;;;;6.20;4.63;;;;;;;7.84;46.25;93677.88;5022326;28;20099;-77
2023/02/23 02:43:14;;;;;;;8.20;5.18;;;;;;;7.73;46.61;93687.13;5022433;28;20033;-75
2023/02/23 02:45:45;;;;;;;10.25;5.68;;;;;;;7.74;46.45;93686.81;5013068;28;20029;-75
2023/02/23 02:48:14;;;;;;;8.70;6.22;;;;;;;7.73;46.24;93691.31;5058357;28;20025;-76
2023/02/23 02:50:49;;;;;;;9.57;5.63;;;;;;;7.68;46.36;93677.38;5040727;28;20056;-77
2023/02/23 02:53:41;;;;;;;9.50;6.63;;;;;;;7.65;46.48;93681.41;5042046;28;20045;-75
2023/02/23 02:56:09;;;;;;;15.00;8.68;;;;;;;7.29;46.68;93640.88;5041401;28;20052;-75
2023/02/23 02:58:37;;;;;;;10.65;7.35;;;;;;;7.52;46.69;93673.50;5040353;28;20076;-76
2023/02/23 04:18:56;;;;;;;21.13;15.38;;;;;;;6.17;50.05;93700.25;5038238;28;20041;-77
2023/02/23 04:21:22;;;;;;;22.40;13.77;;;;;;;6.04;50.27;93700.97;5051966;28;20052;-77
2023/02/23 04:23:48;;;;;;;19.02;12.57;;;;;;;6.12;50.33;93712.72;5051285;28;20025;-77
2023/02/23 04:26:13;;;;;;;19.25;12.18;;;;;;;6.08;50.40;93691.41;5052480;28;20040;-76
2023/02/23 04:28:38;;;;;;;18.95;13.75;;;;;;;6.12;50.46;93681.03;5050159;28;20048;-77
2023/02/23 04:31:04;;;;;;;21.45;12.50;;;;;;;6.36;50.38;93703.66;5050928;28;20124;-76
2023/02/23 04:33:29;;;;;;;17.00;11.93;;;;;;;6.37;50.22;93710.50;5049857;28;20033;-76
2023/02/23 04:35:55;;;;;;;15.95;11.23;;;;;;;5.91;50.50;93678.75;5051951;28;20036;-77
2023/02/23 04:38:21;;;;;;;15.60;10.75;;;;;;;6.02;50.62;93690.69;5029713;28;20649;-76
2023/02/23 04:40:46;;;;;;;15.70;10.13;;;;;;;6.16;50.81;93714.56;5033104;28;20124;-76
2023/02/23 04:43:12;;;;;;;12.40;9.13;;;;;;;6.02;50.74;93702.34;5028772;28;20431;-76
2023/02/23 04:45:38;;;;;;;16.05;9.73;;;;;;;6.14;50.61;93715.88;5032579;28;20053;-76
2023/02/23 04:48:03;;;;;;;13.35;9.90;;;;;;;5.99;50.79;93701.06;5031079;28;20029;-77
2023/02/23 04:50:29;;;;;;;18.02;12.25;;;;;;;6.11;50.87;93716.47;5050723;28;20057;-76
2023/02/23 04:52:55;;;;;;;22.05;13.30;;;;;;;6.12;50.73;93710.88;5030726;28;20576;-77
2023/02/23 04:55:23;;;;;;;21.27;14.35;;;;;;;5.98;50.77;93670.44;5032061;28;20033;-76
2023/02/23 04:57:49;;;;;;;19.40;12.73;;;;;;;6.18;50.85;93711.63;5028766;28;20505;-77
2023/02/23 05:00:16;;;;;;;14.90;9.88;;;;;;;6.10;51.05;93714.88;5029280;28;20112;-77
2023/02/23 05:02:42;;;;;;;12.40;8.75;;;;;;;6.07;50.61;93694.34;5030142;28;20089;-76
2023/02/23 05:05:08;;;;;;;10.93;8.10;;;;;;;6.00;50.68;93684.94;5030229;28;20128;-77
2023/02/23 05:07:34;;;;;;;10.57;7.38;;;;;;;6.04;51.05;93708.09;5029135;28;20597;-77
2023/02/23 05:09:59;;;;;;;17.95;8.07;;;;;;;6.06;50.96;93708.63;5030555;28;20037;-77
2023/02/23 05:12:25;;;;;;;8.73;7.68;;;;;;;5.89;51.07;93683.50;5029369;28;20456;-76
2023/02/23 05:14:50;;;;;;;11.10;7.97;;;;;;;6.02;50.71;93691.78;5044389;28;20033;-77
2023/02/23 05:17:15;;;;;;;13.52;8.77;;;;;;;6.07;50.60;93699.63;5032673;28;20051;-77
2023/02/23 05:19:41;;;;;;;14.88;10.30;;;;;;;6.14;50.80;93713.25;5031748;28;20235;-77
2023/02/23 05:22:11;;;;;;;17.85;11.45;;;;;;;6.21;50.43;93701.28;5033701;28;20030;-77
2023/02/23 05:24:36;;;;;;;14.27;11.52;;;;;;;6.34;50.29;93724.31;5030734;28;20053;-77
2023/02/23 05:27:02;;;;;;;16.88;11.40;;;;;;;6.20;50.46;93725.34;5033618;28;20559;-78
2023/02/23 05:29:27;;;;;;;14.90;11.05;;;;;;;6.20;50.20;93720.06;5036683;28;20049;-78
2023/02/23 05:31:53;;;;;;;16.55;11.15;;;;;;;6.17;50.33;93715.31;5042960;28;20056;-75
2023/02/23 05:34:18;;;;;;;15.68;10.48;;;;;;;6.26;50.45;93734.75;5027409;28;20038;-75
2023/02/23 05:36:43;;;;;;;13.38;9.73;;;;;;;6.11;50.39;93711.19;5032363;28;20045;-77
2023/02/23 05:39:09;;;;;;;11.75;9.80;;;;;;;5.94;50.38;93701.91;5031297;28;20611;-77
2023/02/23 05:41:34;;;;;;;14.30;10.15;;;;;;;6.06;50.77;93737.66;5049003;28;20117;-77
2023/02/23 05:44:00;;;;;;;16.42;10.55;;;;;;;6.03;50.85;93725.81;5034924;28;20037;-75
2023/02/23 05:46:26;;;;;;;15.68;11.13;;;;;;;6.15;50.81;93743.88;5024509;28;20064;-75
2023/02/23 05:48:57;;;;;;;15.95;11.30;;;;;;;6.09;50.82;93737.06;5026699;28;20068;-77
2023/02/23 05:51:23;;;;;;;16.20;11.40;;;;;;;5.83;51.11;93705.75;5030448;28;20172;-75
2023/02/23 05:53:48;;;;;;;22.63;13.98;;;;;;;6.14;51.19;93742.28;5027116;28;20025;-75
2023/02/23 05:56:21;;;;;;;17.30;11.98;;;;;;;6.19;51.05;93752.81;5026376;28;20949;-75
2023/02/23 05:58:48;;;;;;;17.58;11.18;;;;;;;6.12;51.07;93750.47;5023369;28;20413;-76
2023/02/23 06:01:14;;;;;;;15.45;10.60;;;;;;;6.17;51.10;93760.22;5024414;28;20810;-75
2023/02/23 06:03:39;;;;;;;16.33;10.57;;;;;;;6.09;50.97;93756.34;5023697;28;20038;-76
2023/02/23 06:06:06;;;;;;;13.48;10.32;;;;;;;6.05;50.97;93751.94;5020685;28;20091;-75
2023/02/23 06:08:31;;;;;;;14.23;10.57;;;;;;;6.09;51.27;93763.47;5042854;28;20041;-76
2023/02/23 06:10:57;;;;;;;16.58;11.25;;;;;;;5.97;51.55;93756.75;5043171;28;20546;-76
2023/02/23 06:13:22;;;;;;;19.55;13.85;;;;;;;6.25;51.36;93770.16;5031600;28;20603;-76
2023/02/23 06:15:48;;;;;;;26.33;17.02;;;;;;;6.37;51.51;93768.63;5028822;28;20030;-75
2023/02/23 06:18:14;;;;;;;21.58;14.88;;;;;;;6.46;51.54;93773.28;5039992;28;20086;-77
2023/02/23 06:20:39;;;;;;;21.20;15.90;;;;;;;6.22;52.11;93754.84;5040989;28;20028;-76
2023/02/23 06:23:06;;;;;;;24.02;15.70;;;;;;;6.38;51.90;93774.69;5042172;28;20104;-75
2023/02/23 06:25:34;;;;;;;26.02;16.13;;;;;;;6.42;52.00;93773.84;5027400;28;20042;-76
2023/02/23 06:28:00;;;;;;;22.48;17.05;;;;;;;6.33;52.22;93754.44;5029943;28;20425;-76
2023/02/23 06:30:25;;;;;;;27.42;16.75;;;;;;;6.63;51.55;93771.66;5028198;28;21796;-76
2023/02/23 06:32:50;;;;;;;29.73;17.92;;;;;;;6.88;50.91;93767.03;5045337;28;20029;-76
2023/02/23 06:35:16;;;;;;;27.38;18.33;;;;;;;6.86;51.05;93765.47;5025034;28;20045;-75
2023/02/23 06:37:42;;;;;;;29.30;19.05;;;;;;;6.95;51.00;93768.22;5041139;28;20504;-75
2023/02/23 06:40:08;;;;;;;26.73;17.58;;;;;;;7.07;50.84;93773.84;5038894;28;20471;-75
2023/02/23 06:42:34;;;;;;;24.15;17.48;;;;;;;7.12;51.10;93784.31;5021949;28;20168;-74
2023/02/23 06:45:00;;;;;;;18.35;13.70;;;;;;;7.20;50.64;93785.50;5019893;28;20029;-75
2023/02/23 06:47:26;;;;;;;19.75;14.45;;;;;;;7.35;50.05;93787.09;5020659;28;20044;-76
2023/02/23 06:49:51;;;;;;;24.33;14.65;;;;;;;7.25;50.44;93769.53;5020807;28;20073;-75
2023/02/23 06:52:17;;;;;;;25.35;15.13;;;;;;;7.08;50.87;93779.91;5022548;28;20565;-75
2023/02/23 06:54:42;;;;;;;24.23;15.98;;;;;;;7.19;50.32;93757.50;5025260;28;20036;-75
2023/02/23 06:57:08;;;;;;;22.85;15.02;;;;;;;7.41;50.12;93765.53;5037299;28;20025;-75
2023/02/23 06:59:35;;;;;;;22.75;14.27;;;;;;;7.29;50.67;93765.22;5027835;28;20029;-76
2023/02/23 07:02:01;;;;;;;28.80;18.05;;;;;;;7.51;50.28;93770.63;5022029;28;20030;-76
2023/02/23 07:04:26;;;;;;;34.88;19.35;;;;;;;7.55;50.11;93768.97;5025230;28;20985;-76
2023/02/23 07:06:53;;;;;;;32.42;20.40;;;;;;;7.37;50.46;93769.84;5023977;28;20095;-75
2023/02/23 07:09:18;;;;;;;29.60;17.65;;;;;;;7.75;49.78;93786.34;5026160;28;20021;-76
2023/02/23 07:11:43;;;;;;;36.70;18.25;;;;;;;7.67;49.47;93777.22;5026276;28;20496;-76
2023/02/23 07:14:12;;;;;;;27.52;17.63;;;;;;;7.51;49.64;93764.56;5026965;28;20300;-75
2023/02/23 07:16:38;;;;;;;37.10;21.10;;;;;;;7.80;49.76;93793.41;5024063;28;20025;-75
2023/02/23 07:19:04;;;;;;;33.92;21.05;;;;;;;7.32;51.33;93792.97;5025946;28;20048;-76
2023/02/23 07:21:33;;;;;;;32.17;22.33;;;;;;;6.84;52.07;93778.19;5025821;28;20034;-75
2023/02/23 07:23:59;;;;;;;35.75;19.88;;;;;;;6.89;52.26;93800.34;5025274;28;20021;-77
2023/02/23 07:26:25;;;;;;;27.42;18.83;;;;;;;6.40;52.50;93793.72;5021686;28;20033;-75
2023/02/23 07:28:51;;;;;;;27.33;18.73;;;;;;;5.84;53.44;93781.22;5011995;28;20041;-76
2023/02/23 07:31:16;;;;;;;27.60;17.83;;;;;;;6.59;52.53;93791.81;5015983;28;20573;-75
2023/02/23 07:33:42;;;;;;;32.33;17.75;;;;;;;6.68;51.37;93784.81;5021114;28;20060;-76
2023/02/23 07:36:08;;;;;;;32.83;19.20;;;;;;;6.72;51.29;93785.78;5018213;28;20072;-75
2023/02/23 07:38:34;;;;;;;36.05;19.23;;;;;;;6.21;53.11;93782.38;5017893;28;20064;-76
2023/02/23 07:40:59;;;;;;;30.98;19.15;;;;;;;6.68;52.28;93779.53;5021568;28;20520;-77
2023/02/23 07:43:25;;;;;;;30.25;20.73;;;;;;;6.40;52.68;93772.56;5037808;28;20037;-75
2023/02/23 07:45:50;;;;;;;27.20;18.73;;;;;;;6.37;52.75;93773.91;5017585;28;20124;-78
2023/02/23 07:48:17;;;;;;;26.42;19.10;;;;;;;6.58;52.21;93771.75;5020544;28;20179;-77
2023/02/23 07:50:43;;;;;;;33.63;20.20;;;;;;;6.51;52.48;93784.53;5025945;28;20120;-77
2023/02/23 07:53:10;;;;;;;26.80;17.92;;;;;;;7.12;51.22;93776.38;5044371;28;20932;-76
2023/02/23 07:55:37;;;;;;;27.50;20.13;;;;;;;7.33;50.29;93768.09;5061155;28;20028;-76
2023/02/23 07:58:03;;;;;;;30.88;19.65;;;;;;;6.95;51.47;93768.22;5044381;28;20117;-75
2023/02/23 08:00:29;;;;;;;28.92;20.85;;;;;;;6.43;52.69;93758.78;5043880;28;20037;-77
2023/02/23 08:02:54;;;;;;;35.25;20.63;;;;;;;6.91;51.66;93750.59;5045738;28;20036;-75
2023/02/23 08:05:20;;;;;;;27.75;20.83;;;;;;;7.60;50.17;93768.06;5047382;28;20036;-76
2023/02/23 08:07:45;;;;;;;32.45;20.23;;;;;;;7.81;49.29;93760.56;5040145;28;20404;-75
2023/02/23 08:10:11;;;;;;;33.17;20.98;;;;;;;7.98;48.68;93750.91;5051975;28;20521;-75
2023/02/23 08:12:37;;;;;;;33.45;18.73;;;;;;;8.08;48.48;93753.31;5026779;28;20045;-76
2023/02/23 08:15:07;;;;;;;30.83;19.45;;;;;;;8.29;47.93;93787.31;5029708;28;20501;-76
2023/02/23 08:17:33;;;;;;;28.45;19.40;;;;;;;8.36;47.96;93754.06;5043883;28;20037;-77
2023/02/23 08:19:59;;;;;;;32.45;20.20;;;;;;;8.45;47.59;93749.59;5045631;28;20412;-77
2023/02/23 08:22:25;;;;;;;30.77;20.15;;;;;;;8.68;47.09;93762.84;5051339;28;20033;-75
2023/02/23 08:24:50;;;;;;;30.63;18.80;;;;;;;8.70;46.50;93761.47;5044688;28;20061;-75
2023/02/23 08:27:15;;;;;;;31.35;18.73;;;;;;;9.00;46.64;93767.88;5045209;28;20017;-76
2023/02/23 08:29:41;;;;;;;33.17;20.48;;;;;;;8.19;47.68;93761.84;5027061;28;20113;-77
2023/02/23 08:32:06;;;;;;;32.03;19.08;;;;;;;8.47;47.70;93762.53;5024324;28;20037;-76
2023/02/23 08:34:36;;;;;;;33.70;19.38;;;;;;;8.86;46.80;93778.56;5028504;28;20042;-76
2023/02/23 08:37:02;;;;;;;31.92;19.77;;;;;;;9.02;46.25;93771.78;5025180;28;20056;-77
2023/02/23 08:39:27;;;;;;;32.63;20.48;;;;;;;8.64;47.08;93769.81;5015301;28;20057;-77
2023/02/23 08:41:54;;;;;;;31.90;19.15;;;;;;;8.95;46.68;93768.78;5025284;28;20036;-76
2023/02/23 08:44:19;;;;;;;25.35;18.35;;;;;;;9.07;46.49;93757.63;5027569;28;20048;-77
2023/02/23 08:46:45;;;;;;;32.00;18.90;;;;;;;9.27;45.48;93767.75;5027958;28;20037;-77
2023/02/23 08:49:10;;;;;;;26.30;18.15;;;;;;;9.39;45.55;93769.81;5032801;28;20036;-76
2023/02/23 08:51:36;;;;;;;26.23;17.92;;;;;;;8.80;46.34;93779.00;5045342;28;20037;-77
2023/02/23 08:54:01;;;;;;;30.00;19.23;;;;;;;8.93;46.54;93773.63;5027469;28;20022;-77
2023/02/23 08:56:27;;;;;;;25.30;18.42;;;;;;;9.40;45.03;93758.88;5028948;28;20033;-76
2023/02/23 08:58:53;;;;;;;27.83;18.27;;;;;;;9.81;44.21;93771.06;5025317;28;20045;-76
2023/02/23 09:01:20;;;;;;;28.38;19.08;;;;;;;9.58;44.88;93751.78;5041369;28;20030;-76
2023/02/23 09:03:46;;;;;;;26.58;17.70;;;;;;;9.65;44.97;93761.94;5025357;28;20037;-76
2023/02/23 09:06:15;;;;;;;25.10;17.52;;;;;;;9.55;44.72;93764.88;5022203;28;20072;-76
2023/02/23 09:08:41;;;;;;;31.33;18.30;;;;;;;9.31;44.78;93731.53;5023465;28;20075;-77
2023/02/23 09:11:06;;;;;;;24.23;17.85;;;;;;;8.71;46.27;93748.97;5024141;28;20037;-76
2023/02/23 09:13:32;;;;;;;22.38;13.80;;;;;;;9.09;45.49;93755.44;5026325;28;20543;-77
2023/02/23 09:15:58;;;;;;;20.35;13.80;;;;;;;8.86;46.13;93756.56;5022679;28;20064;-76
2023/02/23 09:18:28;;;;;;;21.63;13.52;;;;;;;8.81;46.05;93746.06;5023396;28;20025;-76
2023/02/23 09:20:54;;;;;;;23.20;13.77;;;;;;;9.48;46.38;93741.44;5046612;28;20025;-77
2023/02/23 09:23:19;;;;;;;18.83;12.63;;;;;;;9.06;45.82;93750.75;5042032;28;20044;-76
2023/02/23 09:25:45;;;;;;;25.10;14.18;;;;;;;8.84;46.03;93742.81;5048293;28;20045;-76
2023/02/23 09:28:15;;;;;;;21.65;13.95;;;;;;;8.82;46.08;93745.00;5024253;28;20033;-76
2023/02/23 09:30:41;;;;;;;20.90;13.52;;;;;;;9.11;46.13;93720.63;5022883;28;20428;-76
2023/02/23 09:33:07;;;;;;;24.52;14.20;;;;;;;9.05;46.15;93766.97;5024868;28;20031;-76
2023/02/23 09:35:35;;;;;;;21.42;14.65;;;;;;;9.26;45.87;93766.16;5024889;28;20461;-76
2023/02/23 09:38:02;;;;;;;22.45;14.63;;;;;;;9.49;45.41;93766.13;5039218;28;20107;-75
2023/02/23 09:40:51;;;;;;;20.95;14.70;;;;;;;9.41;45.48;93751.72;5023291;28;20050;-77
2023/02/23 09:43:37;;;;;;;20.38;12.98;;;;;;;9.87;43.84;93743.28;5027433;28;20034;-77
2023/02/23 09:46:18;;;;;;;25.02;14.65;;;;;;;9.72;44.68;93776.34;5027043;28;20031;-77
2023/02/23 09:48:44;;;;;;;27.23;13.65;;;;;;;10.11;43.70;93766.75;5032511;28;20064;-76
2023/02/23 09:51:16;;;;;;;21.90;15.05;;;;;;;9.41;44.56;93723.31;5044054;28;20560;-76
2023/02/23 09:53:46;;;;;;;24.27;13.90;;;;;;;10.13;43.24;93765.34;5041576;28;20021;-76
2023/02/23 09:56:28;;;;;;;19.05;14.00;;;;;;;10.61;42.69;93761.81;5027084;28;20044;-77
2023/02/23 09:58:54;;;;;;;23.40;15.32;;;;;;;10.60;42.08;93718.47;5024466;28;20033;-76
2023/02/23 10:01:25;;;;;;;20.77;14.68;;;;;;;11.02;41.61;93761.25;5028296;28;20607;-76
2023/02/23 10:04:28;;;;;;;24.08;16.42;;;;;;;11.14;41.83;93754.22;5021842;28;20046;-77
2023/02/23 10:07:09;;;;;;;24.35;16.02;;;;;;;11.24;41.53;93741.66;5024332;28;20132;-77
2023/02/23 10:09:53;;;;;;;33.53;20.17;;;;;;;10.41;42.94;93752.56;5021826;28;20057;-77
2023/02/23 10:12:31;;;;;;;43.72;22.58;;;;;;;10.68;43.03;93740.81;5023621;28;20021;-77
2023/02/23 10:15:23;;;;;;;32.15;22.73;;;;;;;10.96;42.01;93746.56;5030150;28;20041;-77
2023/02/23 10:18:40;;;;;;;36.58;23.33;;;;;;;11.29;41.63;93749.47;5040531;28;20040;-77
2023/02/23 10:21:15;;;;;;;;;;;;;;;11.60;41.19;93742.78;5036092;28;20045;-77
2023/02/23 10:24:08;;;;;;;31.50;21.77;;;;;;;11.66;41.44;93732.72;5042424;28;19905;-78
2023/02/23 10:26:43;;;;;;;31.90;20.60;;;;;;;11.67;40.77;93734.28;5060590;28;20101;-77
2023/02/23 10:29:31;;;;;;;26.73;16.90;;;;;;;11.53;41.05;93733.72;5078731;28;20040;-77
2023/02/23 10:32:01;;;;;;;23.63;15.32;;;;;;;11.52;40.54;93734.84;5047913;28;20309;-76
2023/02/23 10:34:28;;;;;;;32.35;16.98;;;;;;;11.16;41.46;93729.91;5040118;28;20017;-77
2023/02/23 10:37:02;;;;;;;25.88;15.25;;;;;;;10.27;42.48;93709.38;5041766;28;20655;-77
2023/02/23 10:39:31;;;;;;;26.63;16.00;;;;;;;10.56;43.30;93716.75;5040355;28;20068;-78
2023/02/23 10:42:01;;;;;;;26.10;15.85;;;;;;;10.62;42.08;93723.44;5035656;28;20025;-77
2023/02/23 10:44:28;;;;;;;20.80;14.95;;;;;;;10.88;41.62;93718.88;5052328;28;20726;-77
2023/02/23 10:47:05;;;;;;;21.85;14.15;;;;;;;11.05;41.44;93715.41;5056367;28;22664;-78
2023/02/23 10:49:45;;;;;;;19.20;13.35;;;;;;;11.48;40.91;93701.94;5070076;28;20048;-77
2023/02/23 10:52:15;;;;;;;21.92;12.23;;;;;;;12.06;39.81;93708.34;5056613;28;20033;-78
2023/02/23 10:54:46;;;;;;;24.20;14.27;;;;;;;12.40;39.94;93692.09;5052736;28;20526;-77
2023/02/23 10:57:18;;;;;;;27.25;15.05;;;;;;;12.41;39.26;93677.66;5055020;28;20104;-77
2023/02/23 10:59:58;;;;;;;20.13;14.02;;;;;;;12.69;38.62;93685.91;5057093;28;20013;-77
2023/02/23 11:02:25;;;;;;;19.90;13.35;;;;;;;12.29;38.83;93690.91;5053158;28;21166;-78
2023/02/23 11:04:54;;;;;;;19.80;12.77;;;;;;;11.95;39.34;93692.75;5058667;28;20056;-78
2023/02/23 11:07:30;;;;;;;15.93;11.48;;;;;;;11.60;39.98;93696.72;5045110;28;20102;-78
2023/02/23 11:10:19;;;;;;;13.48;9.98;;;;;;;11.82;39.65;93691.09;5036406;28;20025;-77
2023/02/23 11:12:45;;;;;;;13.15;9.85;;;;;;;12.10;38.88;93682.59;5037468;28;20545;-77
2023/02/23 11:15:19;;;;;;;15.90;10.90;;;;;;;11.80;39.50;93687.97;5038467;28;20017;-78
2023/02/23 11:17:45;;;;;;;21.08;10.18;;;;;;;11.77;39.76;93685.97;5052780;28;20568;-78
2023/02/23 11:20:38;;;;;;;13.52;9.00;;;;;;;12.07;39.23;93689.38;5038079;28;20053;-78
2023/02/23 11:23:37;;;;;;;17.17;9.73;;;;;;;12.62;38.14;93653.63;5051882;28;20056;-77
2023/02/23 11:26:21;;;;;;;19.33;9.57;;;;;;;12.75;37.45;93650.69;5047872;28;20055;-77
2023/02/23 11:28:54;;;;;;;21.33;11.98;;;;;;;12.86;37.41;93659.81;5054275;28;20047;-76
2023/02/23 11:31:22;;;;;;;14.35;10.30;;;;;;;12.72;37.47;93666.56;5034785;28;20040;-77
2023/02/23 11:33:48;;;;;;;13.23;8.57;;;;;;;12.21;38.02;93662.44;5041853;28;20033;-76
2023/02/23 11:36:23;;;;;;;10.00;6.97;;;;;;;12.28;37.31;93663.47;5041817;28;20045;-77
2023/02/23 11:39:26;;;;;;;14.25;8.77;;;;;;;12.02;37.96;93623.72;5039733;28;20028;-77
2023/02/23 11:42:18;;;;;;;15.15;10.00;;;;;;;12.59;41.24;93662.28;5038541;28;20131;-77
2023/02/23 11:45:00;;;;;;;15.20;10.25;;;;;;;12.10;38.68;93632.75;5041950;28;20335;-76
2023/02/23 11:47:26;;;;;;;14.23;10.85;;;;;;;12.31;38.62;93640.72;5038640;28;20049;-76
2023/02/23 11:49:52;;;;;;;21.58;10.77;;;;;;;12.96;39.86;93650.59;5033650;28;20171;-77
2023/02/23 11:52:22;;;;;;;14.57;10.20;;;;;;;13.27;36.88;93650.09;5021708;28;20041;-77
2023/02/23 11:54:56;;;;;;;17.58;11.13;;;;;;;12.94;37.59;93642.16;5038541;28;20041;-78
2023/02/23 11:57:33;;;;;;;15.68;10.35;;;;;;;12.77;37.76;93648.44;5019643;28;20401;-77
2023/02/23 12:00:07;;;;;;;15.82;9.20;;;;;;;12.63;37.77;93625.84;5023538;28;20113;-78
2023/02/23 12:02:52;;;;;;;18.83;9.60;;;;;;;12.22;38.35;93632.81;5042529;28;20052;-77
2023/02/23 12:05:23;;;;;;;13.43;8.57;;;;;;;12.39;38.07;93639.84;5044987;28;20127;-77
2023/02/23 12:08:06;;;;;;;12.68;9.57;;;;;;;12.62;37.63;93646.41;5043503;28;20488;-78
2023/02/23 12:10:45;;;;;;;16.15;9.65;;;;;;;12.43;37.62;93632.75;5043611;28;20068;-77
2023/02/23 12:13:35;;;;;;;15.95;9.00;;;;;;;12.72;37.31;93640.66;5046431;28;20087;-77
2023/02/23 12:16:04;;;;;;;13.80;9.75;;;;;;;12.89;37.06;93645.81;5048561;28;20044;-77
2023/02/23 12:19:08;;;;;;;17.60;9.80;;;;;;;13.21;37.67;93636.16;5055973;28;20096;-77
2023/02/23 12:21:40;;;;;;;17.10;8.90;;;;;;;13.45;36.60;93638.06;5023734;28;20616;-77
2023/02/23 12:24:24;;;;;;;16.17;9.55;;;;;;;13.26;36.49;93632.50;5025408;28;20053;-77
2023/02/23 12:26:55;;;;;;;15.05;8.70;;;;;;;12.65;37.26;93613.75;5039336;28;20041;-77
2023/02/23 12:29:43;;;;;;;12.13;8.75;;;;;;;12.85;37.68;93628.91;5061830;28;20245;-77
2023/02/23 12:32:20;;;;;;;14.27;8.23;;;;;;;13.07;36.57;93626.91;5047145;28;20500;-78
2023/02/23 12:34:53;;;;;;;11.13;8.05;;;;;;;12.53;37.50;93615.56;5043017;28;20034;-77
2023/02/23 12:37:21;;;;;;;13.25;7.50;;;;;;;12.49;38.04;93631.44;5027253;28;20034;-78
2023/02/23 12:39:53;;;;;;;14.88;8.68;;;;;;;12.94;37.21;93630.69;5027975;28;20052;-77
2023/02/23 12:42:21;;;;;;;11.32;7.65;;;;;;;13.32;36.59;93620.47;5026163;28;20033;-77
2023/02/23 12:44:52;;;;;;;12.55;8.05;;;;;;;13.68;36.36;93622.38;5018553;28;20034;-77
2023/02/23 12:47:48;;;;;;;11.05;7.22;;;;;;;13.12;36.85;93632.03;5021455;28;20041;-77
2023/02/23 12:50:13;;;;;;;;;;;;;;;12.80;37.16;93626.44;5037640;28;20037;-78
2023/02/23 12:52:58;;;;;;;10.57;6.47;;;;;;;12.61;37.59;93607.53;5026234;28;20509;-77
2023/02/23 12:55:46;;;;;;;11.48;8.02;;;;;;;12.61;37.68;93612.06;5026540;28;20038;-77
2023/02/23 12:58:28;;;;;;;11.48;7.63;;;;;;;12.47;37.91;93623.75;5024783;28;20029;-76
2023/02/23 13:01:01;;;;;;;12.32;6.72;;;;;;;12.93;37.76;93618.44;5028578;28;20094;-77